createdAt,value
2022-12-27T06:46:34.165Z,0.857143
2022-12-27T06:47:34.202Z,0.857143
2022-12-27T06:48:34.236Z,0.857143
2022-12-27T06:49:34.270Z,1.71429
2022-12-27T06:50:34.313Z,1.71429
2022-12-27T06:51:34.363Z,2.5
2022-12-27T06:52:34.371Z,2.5
2022-12-27T06:53:34.414Z,3.35714
2022-12-27T06:54:34.449Z,4.21429
2022-12-27T06:55:34.481Z,5
2022-12-27T06:56:34.513Z,5.85714
2022-12-27T06:57:34.599Z,6.71429
2022-12-27T06:58:34.597Z,8.35714
2022-12-27T06:59:34.646Z,9.21429
2022-12-27T07:00:34.661Z,10.8571
2022-12-27T07:01:34.791Z,12.5
2022-12-27T07:02:34.913Z,16.7143
2022-12-27T07:03:34.766Z,15
2022-12-27T07:04:34.824Z,16.7143
2022-12-27T07:05:34.826Z,18.3571
2022-12-27T07:06:34.855Z,24.2143
2022-12-27T07:07:34.910Z,21.7143
2022-12-27T07:08:34.935Z,20.8571
2022-12-27T07:09:34.971Z,24.2143
2022-12-27T07:10:34.997Z,13.3571
2022-12-27T07:11:35.024Z,17.5
2022-12-27T07:12:36.895Z,22.5
2022-12-27T07:13:35.082Z,23.3571
2022-12-27T07:14:35.127Z,25
2022-12-27T07:15:35.178Z,34.2143
2022-12-27T07:16:35.299Z,36.7143
2022-12-27T07:17:35.237Z,42.5
2022-12-27T07:18:35.258Z,36.7143
2022-12-27T07:19:35.290Z,45
2022-12-27T07:20:35.324Z,38.3571
2022-12-27T07:21:35.360Z,36.7143
2022-12-27T07:22:35.423Z,45.8571
2022-12-27T07:23:35.430Z,61.7143
2022-12-27T07:24:35.471Z,75.8571
2022-12-27T07:25:35.514Z,86.7143
2022-12-27T07:26:35.583Z,99.2143
2022-12-27T07:27:35.628Z,100.857
2022-12-27T07:28:35.599Z,100.857
2022-12-27T07:29:38.927Z,100
2022-12-27T07:30:35.706Z,110
2022-12-27T07:31:35.766Z,143.357
2022-12-27T07:32:35.733Z,207.5
2022-12-27T07:33:35.761Z,187.5
2022-12-27T07:34:35.797Z,201.714
2022-12-27T07:35:38.640Z,217.5
2022-12-27T07:36:35.891Z,220.857
2022-12-27T07:37:35.909Z,225
2022-12-27T07:38:35.940Z,185
2022-12-27T07:39:35.972Z,210.857
2022-12-27T07:40:36.021Z,185
2022-12-27T07:41:36.063Z,174.214
2022-12-27T07:42:36.072Z,153.357
2022-12-27T07:43:36.114Z,215
2022-12-27T07:44:36.146Z,144.214
2022-12-27T07:45:36.276Z,119.214
2022-12-27T07:46:36.201Z,125
2022-12-27T07:47:36.247Z,135.857
2022-12-27T07:48:36.279Z,155.857
2022-12-27T07:49:36.328Z,156.714
2022-12-27T07:50:36.336Z,155.857
2022-12-27T07:51:36.378Z,170
2022-12-27T07:52:36.421Z,180.857
2022-12-27T07:53:36.448Z,189.214
2022-12-27T07:54:36.477Z,192.5
2022-12-27T07:55:36.507Z,185.857
2022-12-27T07:56:36.547Z,175.857
2022-12-27T07:57:36.583Z,207.5
2022-12-27T07:58:36.659Z,238.357
2022-12-27T07:59:36.645Z,235
2022-12-27T08:00:36.689Z,207.5
2022-12-27T08:01:36.818Z,188.357
2022-12-27T08:02:36.781Z,182.5
2022-12-27T08:03:36.830Z,173.357
2022-12-27T08:04:36.826Z,169.214
2022-12-27T08:05:36.867Z,185
2022-12-27T08:06:36.894Z,210
2022-12-27T08:07:36.928Z,263.357
2022-12-27T08:08:36.984Z,301.714
2022-12-27T08:09:36.992Z,249.214
2022-12-27T08:10:37.034Z,234.214
2022-12-27T08:11:37.065Z,190
2022-12-27T08:12:37.101Z,271.714
2022-12-27T08:13:37.129Z,220
2022-12-27T08:14:37.166Z,219.214
2022-12-27T08:15:37.193Z,260.857
2022-12-27T08:16:37.262Z,311.714
2022-12-27T08:17:37.260Z,449.214
2022-12-27T08:18:37.283Z,436.714
2022-12-27T08:19:37.328Z,279.214
2022-12-27T08:20:37.359Z,317.5
2022-12-27T08:21:37.388Z,469.214
2022-12-27T08:22:37.445Z,530.857
2022-12-27T08:23:37.464Z,624.214
2022-12-27T08:24:37.502Z,662.5
2022-12-27T08:25:37.534Z,721.714
2022-12-27T08:26:37.569Z,690
2022-12-27T08:27:37.617Z,691.714
2022-12-27T08:28:37.646Z,603.357
2022-12-27T08:29:37.682Z,503.357
2022-12-27T08:30:37.763Z,432.5
2022-12-27T08:31:37.752Z,398.357
2022-12-27T08:32:37.778Z,540
2022-12-27T08:33:37.810Z,581.714
2022-12-27T08:34:37.844Z,504.214
2022-12-27T08:35:52.043Z,459.214
2022-12-27T08:36:56.226Z,438.357
2022-12-27T08:37:37.927Z,475
2022-12-27T08:38:37.960Z,605
2022-12-27T08:39:37.984Z,655.857
2022-12-27T08:40:38.018Z,585
2022-12-27T08:41:38.043Z,509.214
2022-12-27T08:42:38.076Z,476.714
2022-12-27T08:43:38.114Z,401.714
2022-12-27T08:44:38.157Z,308.357
2022-12-27T08:45:38.183Z,346.714
2022-12-27T08:46:38.272Z,330.857
2022-12-27T08:47:38.263Z,355
2022-12-27T08:48:38.346Z,409.214
2022-12-27T08:49:38.302Z,275.857
2022-12-27T08:50:38.347Z,217.5
2022-12-27T08:51:41.068Z,280.857
2022-12-27T08:52:38.426Z,320.857
2022-12-27T08:53:38.443Z,338.357
2022-12-27T08:54:38.472Z,376.714
2022-12-27T08:55:38.493Z,428.357
2022-12-27T08:56:38.575Z,495.857
2022-12-27T08:57:38.573Z,497.5
2022-12-27T08:58:38.603Z,767.5
2022-12-27T08:59:38.629Z,700.857
2022-12-27T09:00:38.660Z,746.714
2022-12-27T09:01:38.967Z,701.714
2022-12-27T09:02:38.833Z,435
2022-12-27T09:03:38.756Z,358.357
2022-12-27T09:04:38.802Z,385.857
2022-12-27T09:05:41.952Z,400.857
2022-12-27T09:06:38.847Z,591.714
2022-12-27T09:07:38.887Z,355.857
2022-12-27T09:08:38.928Z,399.214
2022-12-27T09:09:38.973Z,468.357
2022-12-27T09:10:38.999Z,569.214
2022-12-27T09:11:39.036Z,674.214
2022-12-27T09:12:39.058Z,860
2022-12-27T09:13:39.104Z,820
2022-12-27T09:14:39.134Z,651.714
2022-12-27T09:15:39.255Z,1180
2022-12-27T09:16:39.211Z,875.857
2022-12-27T09:17:39.256Z,841.714
2022-12-27T09:18:39.264Z,994.214
2022-12-27T09:19:39.303Z,1025.86
2022-12-27T09:20:39.333Z,768.357
2022-12-27T09:21:39.356Z,567.5
2022-12-27T09:22:39.413Z,562.5
2022-12-27T09:23:39.424Z,579.214
2022-12-27T09:24:39.464Z,591.714
2022-12-27T09:25:39.544Z,589.214
2022-12-27T09:26:39.534Z,594.214
2022-12-27T09:27:39.555Z,601.714
2022-12-27T09:28:39.589Z,627.5
2022-12-27T09:29:44.599Z,634.214
2022-12-27T09:30:39.652Z,640
2022-12-27T09:31:39.690Z,642.5
2022-12-27T09:32:39.723Z,651.714
2022-12-27T09:33:39.765Z,650
2022-12-27T09:34:39.796Z,651.714
2022-12-27T09:35:39.833Z,830
2022-12-27T09:36:39.859Z,905
2022-12-27T09:37:39.922Z,677.5
2022-12-27T09:38:39.919Z,740.857
2022-12-27T09:39:39.973Z,732.5
2022-12-27T09:40:40.068Z,738.357
2022-12-27T09:42:59.001Z,680.857
2022-12-27T09:43:40.092Z,679.214
2022-12-27T09:44:40.127Z,704.214
2022-12-27T09:45:40.157Z,740
2022-12-27T09:46:40.283Z,760.857
2022-12-27T09:47:40.220Z,781.714
2022-12-27T09:48:40.264Z,1108.36
2022-12-27T09:49:40.296Z,1466.71
2022-12-27T09:50:40.327Z,1724.21
2022-12-27T09:51:40.362Z,1770.86
2022-12-27T09:52:40.428Z,1684.21
2022-12-27T09:53:40.423Z,1564.21
2022-12-27T09:54:40.599Z,1364.21
2022-12-27T09:55:40.497Z,1121.71
2022-12-27T09:57:17.690Z,1373.36
2022-12-27T09:57:40.591Z,1484.21
2022-12-27T09:58:40.601Z,1570.86
2022-12-27T09:59:40.631Z,1358.36
2022-12-27T10:00:46.074Z,1569.21
2022-12-27T10:01:40.775Z,1570
2022-12-27T10:02:40.801Z,1255
2022-12-27T10:03:40.748Z,1581.71
2022-12-27T10:05:17.975Z,834.214
2022-12-27T10:05:40.855Z,1007.5
2022-12-27T10:06:40.832Z,808.357
2022-12-27T10:07:40.863Z,775.857
2022-12-27T10:08:40.898Z,708.357
2022-12-27T10:09:40.932Z,735.857
2022-12-27T10:10:40.982Z,679.214
2022-12-27T10:11:41.008Z,662.5
2022-12-27T10:12:41.035Z,809.214
2022-12-27T10:13:41.062Z,689.214
2022-12-27T10:14:41.096Z,650
2022-12-27T10:15:41.182Z,646.714
2022-12-27T10:16:41.159Z,690
2022-12-27T10:17:41.197Z,724.214
2022-12-27T10:18:41.278Z,1219.21
2022-12-27T10:19:41.250Z,1570.86
2022-12-27T10:20:41.284Z,1625
2022-12-27T10:21:41.314Z,1496.71
2022-12-27T10:22:41.344Z,1293.36
2022-12-27T10:23:41.363Z,1295
2022-12-27T10:24:41.394Z,1305
2022-12-27T10:25:41.425Z,1270
2022-12-27T10:26:41.471Z,1431.71
2022-12-27T10:27:41.499Z,1277.5
2022-12-27T10:28:41.530Z,900
2022-12-27T10:29:41.585Z,1146.71
2022-12-27T10:30:41.600Z,823.357
2022-12-27T10:31:41.651Z,1277.5
2022-12-27T10:32:41.668Z,769.214
2022-12-27T10:33:41.695Z,708.357
2022-12-27T10:34:41.831Z,688.357
2022-12-27T10:35:41.742Z,910
2022-12-27T10:36:41.792Z,789.214
2022-12-27T10:37:41.823Z,695.857
2022-12-27T10:38:41.852Z,1108.36
2022-12-27T10:39:41.876Z,1098.36
2022-12-27T10:40:41.916Z,957.5
2022-12-27T10:41:41.947Z,904.214
2022-12-27T10:42:42.106Z,1405
2022-12-27T10:43:42.015Z,1737.5
2022-12-27T10:44:42.055Z,1511.71
2022-12-27T10:45:42.086Z,1264.21
2022-12-27T10:46:42.183Z,1564.21
2022-12-27T10:47:42.157Z,1546.71
2022-12-27T10:49:11.295Z,1391.71
2022-12-27T10:49:42.226Z,1577.5
2022-12-27T10:50:42.275Z,1489.21
2022-12-27T10:51:42.285Z,1257.5
2022-12-27T10:52:42.317Z,1518.36
2022-12-27T10:53:42.352Z,1602.5
2022-12-27T10:54:42.392Z,1524.21
2022-12-27T10:55:42.453Z,1326.71
2022-12-27T10:56:42.466Z,1573.36
2022-12-27T10:57:42.492Z,1655.86
2022-12-27T10:58:42.519Z,1801.71
2022-12-27T10:59:42.571Z,1825.86
2022-12-27T11:00:42.602Z,1565
2022-12-27T11:01:42.753Z,945
2022-12-27T11:02:42.971Z,915.857
2022-12-27T11:03:42.698Z,943.357
2022-12-27T11:04:42.731Z,1114.21
2022-12-27T11:05:42.760Z,1262.5
2022-12-27T11:06:42.790Z,1015
2022-12-27T11:07:42.896Z,890.857
2022-12-27T11:08:42.864Z,641.714
2022-12-27T11:09:48.390Z,755
2022-12-27T11:10:42.935Z,1097.5
2022-12-27T11:11:42.973Z,794.214
2022-12-27T11:12:43.003Z,925.857
2022-12-27T11:13:43.040Z,1132.5
2022-12-27T11:14:43.078Z,855.857
2022-12-27T11:15:43.097Z,979.214
2022-12-27T11:16:43.190Z,1566.71
2022-12-27T11:17:43.168Z,1764.21
2022-12-27T11:18:43.192Z,1312.5
2022-12-27T11:19:43.231Z,1555
2022-12-27T11:20:43.261Z,1497.5
2022-12-27T11:21:43.297Z,1493.36
2022-12-27T11:22:43.335Z,1105.86
2022-12-27T11:23:43.364Z,1150
2022-12-27T11:24:43.401Z,1255.86
2022-12-27T11:25:43.435Z,850
2022-12-27T11:26:45.501Z,839.214
2022-12-27T11:27:43.487Z,1078.36
2022-12-27T11:28:43.525Z,1282.5
2022-12-27T11:29:43.586Z,1260.86
2022-12-27T11:30:43.599Z,1207.5
2022-12-27T11:31:43.667Z,1620.86
2022-12-27T11:32:43.669Z,1620
2022-12-27T11:33:43.691Z,1740
2022-12-27T11:34:43.727Z,1885
2022-12-27T11:35:43.816Z,1591.71
2022-12-27T11:36:43.815Z,1336.71
2022-12-27T11:37:43.835Z,1215.86
2022-12-27T11:38:43.882Z,1253.36
2022-12-27T11:39:43.902Z,1286.71
2022-12-27T11:40:43.970Z,1167.5
2022-12-27T11:41:43.983Z,932.5
2022-12-27T11:42:44.019Z,1036.71
2022-12-27T11:43:44.035Z,875.857
2022-12-27T11:44:44.073Z,1217.5
2022-12-27T11:45:44.102Z,1406.71
2022-12-27T11:46:44.255Z,1000
2022-12-27T11:47:44.190Z,1293.36
2022-12-27T11:48:44.210Z,1110
2022-12-27T11:49:44.238Z,1080.86
2022-12-27T11:50:44.289Z,1072.5
2022-12-27T11:51:44.341Z,895.857
2022-12-27T11:52:44.328Z,779.214
2022-12-27T11:53:44.363Z,770
2022-12-27T11:54:44.405Z,834.214
2022-12-27T11:55:44.444Z,945.857
2022-12-27T11:56:44.473Z,966.714
2022-12-27T11:57:44.492Z,805
2022-12-27T11:58:44.528Z,912.5
2022-12-27T11:59:44.590Z,1100
2022-12-27T12:00:44.607Z,921.714
2022-12-27T12:01:44.751Z,1098.36
2022-12-27T12:02:44.785Z,1141.71
2022-12-27T12:03:44.802Z,1205.86
2022-12-27T12:04:44.748Z,1111.71
2022-12-27T12:05:44.772Z,1199.21
2022-12-27T12:06:44.805Z,1066.71
2022-12-27T12:07:44.864Z,670.857
2022-12-27T12:08:44.876Z,777.5
2022-12-27T12:09:44.918Z,880.857
2022-12-27T12:10:44.951Z,965
2022-12-27T12:11:48.637Z,818.357
2022-12-27T12:12:45.028Z,1060.86
2022-12-27T12:13:45.057Z,1118.36
2022-12-27T12:14:45.095Z,883.357
2022-12-27T12:15:45.114Z,1007.5
2022-12-27T12:16:45.248Z,888.357
2022-12-27T12:17:45.197Z,1130.86
2022-12-27T12:18:45.236Z,1142.5
2022-12-27T12:19:45.273Z,947.5
2022-12-27T12:20:50.551Z,643.357
2022-12-27T12:21:45.372Z,699.214
2022-12-27T12:22:45.359Z,757.5
2022-12-27T12:23:45.390Z,720.857
2022-12-27T12:24:45.427Z,576.714
2022-12-27T12:25:45.457Z,564.214
2022-12-27T12:26:45.503Z,560.857
2022-12-27T12:27:45.526Z,560.857
2022-12-27T12:28:58.253Z,563.357
2022-12-27T12:29:45.599Z,605
2022-12-27T12:30:45.623Z,605.857
2022-12-27T12:31:45.728Z,600.857
2022-12-27T12:32:45.698Z,595
2022-12-27T12:33:45.730Z,595.857
2022-12-27T12:34:45.772Z,605
2022-12-27T12:35:45.813Z,603.357
2022-12-27T12:36:52.155Z,606.714
2022-12-27T12:37:45.903Z,597.5
2022-12-27T12:38:45.901Z,585
2022-12-27T12:39:45.935Z,581.714
2022-12-27T12:40:45.970Z,582.5
2022-12-27T12:41:46.002Z,580
2022-12-27T12:42:46.051Z,575
2022-12-27T12:43:46.078Z,575.857
2022-12-27T12:44:46.104Z,576.714
2022-12-27T12:45:46.298Z,570
2022-12-27T12:46:46.167Z,557.5
2022-12-27T12:47:46.222Z,569.214
2022-12-27T12:48:46.235Z,585
2022-12-27T12:49:46.286Z,580.857
2022-12-27T12:50:46.306Z,598.357
2022-12-27T12:51:46.339Z,682.5
2022-12-27T12:52:46.372Z,840
2022-12-27T12:53:46.404Z,783.357
2022-12-27T12:54:46.440Z,676.714
2022-12-27T12:55:46.478Z,833.357
2022-12-27T12:56:46.538Z,709.214
2022-12-27T12:57:46.546Z,742.5
2022-12-27T12:58:46.574Z,683.357
2022-12-27T12:59:46.611Z,679.214
2022-12-27T13:00:46.817Z,595
2022-12-27T13:01:50.769Z,698.357
2022-12-27T13:02:46.789Z,904.214
2022-12-27T13:03:46.743Z,1053.36
2022-12-27T13:04:46.776Z,803.357
2022-12-27T13:05:46.820Z,873.357
2022-12-27T13:06:46.849Z,913.357
2022-12-27T13:07:46.884Z,914.214
2022-12-27T13:08:46.911Z,825
2022-12-27T13:09:46.949Z,760
2022-12-27T13:10:46.999Z,728.357
2022-12-27T13:11:47.009Z,602.5
2022-12-27T13:12:52.393Z,950.857
2022-12-27T13:13:47.090Z,836.714
2022-12-27T13:14:47.127Z,855
2022-12-27T13:15:47.169Z,883.357
2022-12-27T13:16:47.224Z,563.357
2022-12-27T13:17:47.232Z,487.5
2022-12-27T13:18:47.265Z,542.5
2022-12-27T13:19:47.295Z,669.214
2022-12-27T13:20:47.328Z,605
2022-12-27T13:21:47.368Z,746.714
2022-12-27T13:22:47.390Z,679.214
2022-12-27T13:23:47.431Z,650.857
2022-12-27T13:24:47.444Z,519.214
2022-12-27T13:25:47.482Z,516.714
2022-12-27T13:26:47.527Z,591.714
2022-12-27T13:27:47.549Z,529.214
2022-12-27T13:28:47.594Z,545.857
2022-12-27T13:29:47.615Z,761.714
2022-12-27T13:30:47.672Z,1214.21
2022-12-27T13:31:47.691Z,840.857
2022-12-27T13:32:47.708Z,595
2022-12-27T13:33:47.731Z,494.214
2022-12-27T13:34:47.764Z,528.357
2022-12-27T13:35:47.814Z,505.857
2022-12-27T13:36:47.870Z,476.714
2022-12-27T13:37:47.878Z,535
2022-12-27T13:38:47.919Z,539.214
2022-12-27T13:39:47.941Z,539.214
2022-12-27T13:40:47.970Z,552.5
2022-12-27T13:41:48.040Z,453.357
2022-12-27T13:42:48.061Z,435.857
2022-12-27T13:43:48.095Z,431.714
2022-12-27T13:44:48.138Z,421.714
2022-12-27T13:45:48.214Z,410
2022-12-27T13:46:48.195Z,406.714
2022-12-27T13:47:48.250Z,389.214
2022-12-27T13:48:48.270Z,385.857
2022-12-27T13:49:48.301Z,388.357
2022-12-27T13:50:48.339Z,411.714
2022-12-27T13:51:48.369Z,402.5
2022-12-27T13:52:48.444Z,394.214
2022-12-27T13:53:48.456Z,378.357
2022-12-27T13:54:48.489Z,367.5
2022-12-27T13:55:48.509Z,362.5
2022-12-27T13:56:54.735Z,357.5
2022-12-27T13:57:48.581Z,366.714
2022-12-27T13:58:48.605Z,351.714
2022-12-27T13:59:48.642Z,341.714
2022-12-27T14:00:48.675Z,336.714
2022-12-27T14:01:48.829Z,339.214
2022-12-27T14:02:48.926Z,340
2022-12-27T14:03:48.784Z,338.357
2022-12-27T14:04:48.855Z,332.5
2022-12-27T14:05:48.845Z,325
2022-12-27T14:06:48.884Z,315.857
2022-12-27T14:07:48.910Z,310
2022-12-27T14:08:48.956Z,311.714
2022-12-27T14:09:48.997Z,299.214
2022-12-27T14:10:49.024Z,291.714
2022-12-27T14:11:49.053Z,290
2022-12-27T14:12:49.098Z,285.857
2022-12-27T14:13:49.120Z,280.857
2022-12-27T14:14:49.155Z,275.857
2022-12-27T14:15:49.224Z,266.714
2022-12-27T14:16:52.126Z,258.357
2022-12-27T14:17:49.246Z,250
2022-12-27T14:18:49.275Z,243.357
2022-12-27T14:19:49.297Z,240
2022-12-27T14:20:49.330Z,240.857
2022-12-27T14:21:49.365Z,227.5
2022-12-27T14:22:54.195Z,210
2022-12-27T14:23:49.427Z,213.357
2022-12-27T14:24:49.465Z,202.5
2022-12-27T14:25:49.495Z,190.857
2022-12-27T14:26:49.536Z,180.857
2022-12-27T14:27:49.568Z,170
2022-12-27T14:28:53.442Z,161.714
2022-12-27T14:29:49.625Z,153.357
2022-12-27T14:30:49.699Z,150.857
2022-12-27T14:31:49.696Z,148.357
2022-12-27T14:32:49.725Z,141.714
2022-12-27T14:33:49.764Z,135.857
2022-12-27T14:34:54.553Z,130.857
2022-12-27T14:35:49.834Z,125.857
2022-12-27T14:36:49.864Z,120.857
2022-12-27T14:37:49.899Z,115.857
2022-12-27T14:38:49.940Z,110.857
2022-12-27T14:39:49.973Z,106.714
2022-12-27T14:40:50.006Z,101.714
2022-12-27T14:41:50.041Z,97.5
2022-12-27T14:42:50.056Z,93.3571
2022-12-27T14:43:50.093Z,90
2022-12-27T14:44:50.144Z,86.7143
2022-12-27T14:45:55.536Z,82.5
2022-12-27T14:46:50.271Z,79.2143
2022-12-27T14:47:50.237Z,75.8571
2022-12-27T14:48:50.276Z,73.3571
2022-12-27T14:49:50.356Z,70
2022-12-27T14:50:50.336Z,68.3571
2022-12-27T14:52:00.745Z,63.3571
2022-12-27T14:52:50.419Z,61.7143
2022-12-27T14:53:50.449Z,57.5
2022-12-27T14:54:50.504Z,55.8571
2022-12-27T14:55:50.508Z,51.7143
2022-12-27T14:56:50.551Z,46.7143
2022-12-27T14:57:50.582Z,45
2022-12-27T14:58:50.606Z,42.5
2022-12-27T14:59:50.646Z,39.2143
2022-12-27T15:00:50.671Z,36.7143
2022-12-27T15:01:50.864Z,31.7143
2022-12-27T15:02:50.936Z,25
2022-12-27T15:03:50.833Z,25
2022-12-27T15:04:50.813Z,24.2143
2022-12-27T15:05:50.900Z,21.7143
2022-12-27T15:06:50.878Z,19.2143
2022-12-27T15:07:50.905Z,15.8571
2022-12-27T15:08:50.939Z,15
2022-12-27T15:09:50.976Z,14.2143
2022-12-27T15:10:51.011Z,13.3571
2022-12-27T15:11:51.041Z,11.7143
2022-12-27T15:12:51.070Z,10
2022-12-27T15:13:51.107Z,9.21429
2022-12-27T15:14:51.140Z,8.35714
2022-12-27T15:15:51.234Z,6.71429
2022-12-27T15:16:51.220Z,5.85714
2022-12-27T15:17:51.248Z,5
2022-12-27T15:18:51.281Z,4.21429
2022-12-27T15:19:51.318Z,3.35714
2022-12-27T15:20:51.349Z,3.35714
2022-12-27T15:21:51.425Z,2.5
2022-12-27T15:22:51.422Z,1.71429
2022-12-27T15:23:51.468Z,1.71429
2022-12-27T15:24:51.517Z,0.857143
2022-12-27T15:25:51.537Z,0.857143
2022-12-27T15:26:51.569Z,0.857143
2022-12-27T15:27:56.600Z,0.857143
